createdAt,value
2019-02-20T00:02:40.121Z,101208.31
2019-02-20T00:07:43.375Z,101201.08
2019-02-20T00:12:47.302Z,101211.70
2019-02-20T00:17:50.716Z,101219.47
2019-02-20T00:22:54.031Z,101224.15
2019-02-20T00:27:56.956Z,101229.71
2019-02-20T00:32:59.832Z,101236.10
2019-02-20T00:38:03.356Z,101232.89
2019-02-20T00:43:06.613Z,101217.47
2019-02-20T00:48:35.685Z,101221.73
2019-02-20T00:53:44.218Z,101230.59
2019-02-20T00:58:49.671Z,101246.87
2019-02-20T01:03:52.825Z,101255.20
2019-02-20T01:08:55.685Z,101266.76
2019-02-20T01:13:58.539Z,101264.62
2019-02-20T01:19:01.799Z,101269.45
2019-02-20T01:24:04.975Z,101264.44
2019-02-20T01:29:08.149Z,101267.83
2019-02-20T01:34:11.599Z,101274.27
2019-02-20T01:39:14.437Z,101282.00
2019-02-20T01:44:17.440Z,101265.61
2019-02-20T01:49:20.033Z,101268.13
2019-02-20T01:54:23.280Z,101278.91
2019-02-20T01:59:26.468Z,101284.31
2019-02-20T02:04:29.614Z,101267.62
2019-02-20T02:09:32.464Z,101263.48
2019-02-20T02:14:35.650Z,101283.05
2019-02-20T02:19:38.848Z,101282.87
2019-02-20T02:24:42.015Z,101283.23
2019-02-20T02:29:45.521Z,101275.44
2019-02-20T02:34:49.044Z,101273.59
2019-02-20T02:39:52.510Z,101279.02
2019-02-20T02:44:55.411Z,101281.78
2019-02-20T02:49:58.463Z,101293.67
2019-02-20T02:55:01.971Z,101280.73
2019-02-20T03:00:06.298Z,101274.95
2019-02-20T03:05:09.507Z,101266.36
2019-02-20T03:10:12.698Z,101279.45
2019-02-20T03:15:16.209Z,101284.19
2019-02-20T03:20:18.758Z,101288.55
2019-02-20T03:25:22.139Z,101294.89
2019-02-20T03:30:25.643Z,101298.77
2019-02-20T03:35:29.160Z,101293.86
2019-02-20T03:40:32.367Z,101288.16
2019-02-20T03:45:35.093Z,101288.08
2019-02-20T03:50:37.944Z,101289.70
2019-02-20T03:55:40.807Z,101282.65
2019-02-20T04:00:43.728Z,101288.13
2019-02-20T04:05:47.364Z,101304.08
2019-02-20T04:10:50.819Z,101301.06
2019-02-20T04:15:53.796Z,101313.12
2019-02-20T04:20:56.947Z,101300.39
2019-02-20T04:26:00.570Z,101306.75
2019-02-20T04:31:03.448Z,101316.59
2019-02-20T04:36:06.979Z,101320.55
2019-02-20T04:41:09.785Z,101325.95
2019-02-20T04:46:12.845Z,101331.64
2019-02-20T04:51:15.866Z,101319.22
2019-02-20T04:56:19.373Z,101329.94
2019-02-20T05:01:22.521Z,101342.44
2019-02-20T05:06:25.954Z,101335.69
2019-02-20T05:11:28.840Z,101331.84
2019-02-20T05:16:32.777Z,101315.25
2019-02-20T05:21:36.266Z,101330.75
2019-02-20T05:26:39.266Z,101338.59
2019-02-20T05:31:42.321Z,101341.19
2019-02-20T05:36:46.639Z,101330.58
2019-02-20T05:41:49.672Z,101333.47
2019-02-20T05:46:52.840Z,101344.34
2019-02-20T05:51:56.050Z,101344.05
2019-02-20T05:56:59.554Z,101344.55
2019-02-20T06:02:03.074Z,101344.64
2019-02-20T06:07:05.950Z,101345.79
2019-02-20T06:12:09.644Z,101353.61
2019-02-20T06:17:12.711Z,101348.81
2019-02-20T06:22:15.731Z,101366.38
2019-02-20T06:27:18.953Z,101369.47
2019-02-20T06:32:24.104Z,101386.63
2019-02-20T06:37:27.111Z,101388.05
2019-02-20T06:42:30.383Z,101387.23
2019-02-20T06:47:33.620Z,101384.81
2019-02-20T06:52:37.178Z,101391.43
2019-02-20T06:57:40.320Z,101392.40
2019-02-20T07:02:43.507Z,101396.56
2019-02-20T07:08:33.466Z,101405.27
2019-02-20T07:14:01.049Z,101415.79
2019-02-20T07:19:26.211Z,101421.52
2019-02-20T07:25:10.982Z,101427.20
2019-02-20T07:30:13.965Z,101434.88
2019-02-20T07:35:16.484Z,101435.22
2019-02-20T07:40:19.405Z,101440.50
2019-02-20T07:45:22.839Z,101450.59
2019-02-20T07:50:25.782Z,101453.04
2019-02-20T07:55:28.269Z,101450.59
2019-02-20T08:00:31.233Z,101450.59
2019-02-20T08:05:34.492Z,101462.20
2019-02-20T08:10:37.688Z,101472.27
2019-02-20T08:15:40.999Z,101473.13
2019-02-20T08:20:43.881Z,101477.52
2019-02-20T08:25:46.399Z,101485.18
2019-02-20T08:30:49.892Z,101499.44
2019-02-20T08:35:53.485Z,101506.22
2019-02-20T08:40:56.038Z,101501.87
2019-02-20T08:45:59.560Z,101512.06
2019-02-20T08:51:02.940Z,101514.86
2019-02-20T08:56:06.623Z,101521.77
2019-02-20T09:01:10.097Z,101526.38
2019-02-20T09:06:13.612Z,101530.94
2019-02-20T09:11:17.129Z,101541.85
2019-02-20T09:16:20.186Z,101539.16
2019-02-20T09:21:23.635Z,101545.04
2019-02-20T09:26:26.918Z,101543.12
2019-02-20T09:31:30.520Z,101552.67
2019-02-20T09:36:34.102Z,101550.53
2019-02-20T09:41:37.327Z,101552.30
2019-02-20T09:46:40.841Z,101570.38
2019-02-20T09:51:44.086Z,101566.41
2019-02-20T09:56:47.572Z,101574.41
2019-02-20T10:01:50.702Z,101572.48
2019-02-20T10:06:53.977Z,101575.66
2019-02-20T10:11:57.402Z,101585.63
2019-02-20T10:17:00.912Z,101592.80
2019-02-20T10:22:04.138Z,101610.85
2019-02-20T10:27:07.028Z,101605.03
2019-02-20T10:32:09.922Z,101608.42
2019-02-20T10:37:12.784Z,101609.41
2019-02-20T10:42:17.484Z,101616.67
2019-02-20T10:47:20.074Z,101619.02
2019-02-20T10:52:23.602Z,101621.69
2019-02-20T10:57:26.796Z,101639.80
2019-02-20T11:02:30.092Z,101634.43
2019-02-20T11:07:33.097Z,101628.57
2019-02-20T11:12:36.635Z,101635.06
2019-02-20T11:17:39.851Z,101634.16
2019-02-20T11:22:43.353Z,101643.91
2019-02-20T11:27:46.926Z,101644.48
2019-02-20T11:32:49.778Z,101642.09
2019-02-20T11:37:53.179Z,101655.90
2019-02-20T11:42:56.419Z,101651.57
2019-02-20T11:48:00.028Z,101652.36
2019-02-20T11:53:03.568Z,101649.65
2019-02-20T11:58:06.742Z,101648.89
2019-02-20T12:03:10.014Z,101660.20
2019-02-20T12:08:13.955Z,101657.17
2019-02-20T12:13:17.126Z,101650.61
2019-02-20T12:18:20.301Z,101654.88
2019-02-20T12:23:24.844Z,101665.09
2019-02-20T12:28:27.806Z,101671.13
2019-02-20T12:33:30.815Z,101672.81
2019-02-20T12:38:33.761Z,101668.94
2019-02-20T12:43:37.005Z,101669.61
2019-02-20T12:48:40.241Z,101674.34
2019-02-20T12:53:43.777Z,101682.59
2019-02-20T12:58:47.258Z,101682.73
2019-02-20T13:03:50.811Z,101682.56
2019-02-20T13:08:54.025Z,101685.78
2019-02-20T13:13:57.246Z,101683.48
2019-02-20T13:19:00.441Z,101685.34
2019-02-20T13:24:03.993Z,101683.40
2019-02-20T13:29:06.895Z,101677.76
2019-02-20T13:34:10.074Z,101679.30
2019-02-20T13:39:13.423Z,101686.02
2019-02-20T13:44:16.643Z,101687.16
2019-02-20T13:49:19.834Z,101681.37
2019-02-20T13:54:22.831Z,101681.89
2019-02-20T13:59:26.348Z,101679.00
2019-02-20T14:04:29.558Z,101673.89
2019-02-20T14:09:32.766Z,101679.39
2019-02-20T14:14:36.033Z,101670.58
2019-02-20T14:19:39.700Z,101675.14
2019-02-20T14:24:44.384Z,101679.86
2019-02-20T14:29:47.656Z,101688.30
2019-02-20T14:34:50.166Z,101688.91
2019-02-20T14:39:53.678Z,101672.56
2019-02-20T14:44:57.901Z,101672.14
2019-02-20T14:50:01.810Z,101661.25
2019-02-20T14:55:05.561Z,101669.97
2019-02-20T15:00:09.627Z,101669.77
2019-02-20T15:05:13.101Z,101667.46
2019-02-20T15:10:16.432Z,101673.23
2019-02-20T15:15:19.978Z,101671.89
2019-02-20T15:20:23.260Z,101668.61
2019-02-20T15:25:26.252Z,101676.79
2019-02-20T15:30:29.149Z,101680.61
2019-02-20T15:35:33.349Z,101686.22
2019-02-20T15:40:36.284Z,101688.63
2019-02-20T15:45:39.483Z,101688.25
2019-02-20T15:50:42.819Z,101693.19
2019-02-20T15:55:46.230Z,101694.61
2019-02-20T16:00:49.148Z,101690.35
2019-02-20T16:05:52.541Z,101690.77
2019-02-20T16:10:56.815Z,101696.36
2019-02-20T16:15:59.824Z,101695.48
2019-02-20T16:21:03.054Z,101690.99
2019-02-20T16:26:06.405Z,101689.58
2019-02-20T16:31:09.983Z,101691.34
2019-02-20T16:36:13.540Z,101694.01
2019-02-20T16:41:17.041Z,101700.03
2019-02-20T16:46:20.304Z,101710.00
2019-02-20T16:51:23.742Z,101698.53
2019-02-20T16:56:26.939Z,101699.42
2019-02-20T17:01:30.242Z,101699.77
2019-02-20T17:06:33.995Z,101695.60
2019-02-20T17:11:36.936Z,101704.16
2019-02-20T17:16:40.267Z,101707.55
2019-02-20T17:21:43.219Z,101718.98
2019-02-20T17:26:46.508Z,101733.27
2019-02-20T17:31:49.966Z,101722.09
2019-02-20T17:36:53.318Z,101726.79
2019-02-20T17:41:56.598Z,101731.30
2019-02-20T17:47:00.290Z,101727.28
2019-02-20T17:52:02.926Z,101730.67
2019-02-20T17:57:06.215Z,101730.16
2019-02-20T18:02:09.864Z,101725.41
2019-02-20T18:07:13.118Z,101724.82
2019-02-20T18:12:16.698Z,101721.12
2019-02-20T18:17:19.959Z,101725.77
2019-02-20T18:22:25.878Z,101732.36
2019-02-20T18:27:29.190Z,101730.88
2019-02-20T18:32:32.791Z,101741.94
2019-02-20T18:37:36.009Z,101721.69
2019-02-20T18:42:38.973Z,101743.56
2019-02-20T18:47:42.586Z,101738.17
2019-02-20T18:52:46.377Z,101733.67
2019-02-20T18:57:49.879Z,101741.69
2019-02-20T19:02:53.970Z,101726.50
2019-02-20T19:07:58.782Z,101736.34
2019-02-20T19:13:53.505Z,101717.91
2019-02-20T19:19:45.290Z,101726.41
2019-02-20T19:25:29.162Z,101737.52
2019-02-20T19:31:23.288Z,101732.88
2019-02-20T19:36:55.579Z,101738.52
2019-02-20T19:42:44.397Z,101733.42
2019-02-20T19:48:12.728Z,101732.78
2019-02-20T19:53:30.489Z,101738.80
2019-02-20T19:59:04.021Z,101729.94
2019-02-20T20:05:07.080Z,101725.75
2019-02-20T20:11:00.307Z,101719.18
2019-02-20T20:16:43.353Z,101719.60
2019-02-20T20:22:28.891Z,101724.91
2019-02-20T20:28:14.946Z,101718.75
2019-02-20T20:34:02.112Z,101723.84
2019-02-20T20:39:51.201Z,101726.06
2019-02-20T20:45:31.874Z,101723.85
2019-02-20T20:51:11.692Z,101722.30
2019-02-20T20:56:36.144Z,101727.93
2019-02-20T21:02:08.524Z,101723.45
2019-02-20T21:08:01.559Z,101717.66
2019-02-20T21:13:59.234Z,101714.48
2019-02-20T21:19:48.113Z,101718.14
2019-02-20T21:25:46.481Z,101719.41
2019-02-20T21:31:37.092Z,101719.02
2019-02-20T21:36:55.033Z,101716.92
2019-02-20T21:43:04.908Z,101721.95
2019-02-20T21:48:37.208Z,101716.50
2019-02-20T21:54:16.423Z,101719.22
2019-02-20T22:00:01.010Z,101722.41
2019-02-20T22:05:36.017Z,101720.42
2019-02-20T22:11:14.602Z,101717.95
2019-02-20T22:17:26.531Z,101716.85
2019-02-20T22:23:10.576Z,101713.10
2019-02-20T22:28:37.897Z,101704.69
2019-02-20T22:34:00.021Z,101715.03
2019-02-20T22:39:11.356Z,101717.46
2019-02-20T22:45:05.221Z,101716.38
2019-02-20T22:50:44.929Z,101714.45
2019-02-20T22:56:35.699Z,101715.71
2019-02-20T23:01:52.224Z,101713.86
2019-02-20T23:07:25.075Z,101713.69
2019-02-20T23:13:03.246Z,101708.16
2019-02-20T23:18:06.786Z,101701.95
2019-02-20T23:23:09.986Z,101707.30
2019-02-20T23:28:13.197Z,101701.20
2019-02-20T23:33:16.216Z,101703.22
2019-02-20T23:38:19.448Z,101698.39
2019-02-20T23:43:22.810Z,101701.50
2019-02-20T23:48:26.116Z,101710.47
2019-02-20T23:53:29.365Z,101709.80
2019-02-20T23:58:32.654Z,101705.84
